Frozen Creek, Kentucky
Current Conditions -  °F | °C
As of 3:53 AM on Tuesday 21 Oct 2014 (Local Time) from KJKL Reporting Station
Few Clouds Few Clouds  
Wind Chill: 50°   Ceiling: Unl
Heat Index: 50°   Visibility: 10mi
Dew Point: 47°   Wind: 3mph
Humidity: 89%   Direction: NA
Pressure: 29.94"   Gusts: NA
Location:  37.532°N, 83.3068°W
Report Text: KJKL 210753Z AUTO VRB03KT 10SM FEW034 10/08 A2994 RMK AO2 SLP136 T01000083
Loading
Personal Weather Stations






























Interactive Weather Map
Tropical Storm Tracking
New forecast layout! Learn more

10-Day Weather Forecast

Advertisements
Track Severe Weather on mobile